sensor_id;sensor_type;location;lat;lon;timestamp;pressure;altitude;pressure_sealevel;temperature;humidity
24306;BME280;12423;48.768;8.850;2023-03-16T00:00:30;97331.47;;;-0.11;100.00
24306;BME280;12423;48.768;8.850;2023-03-16T00:02:32;97334.78;;;-0.06;100.00
24306;BME280;12423;48.768;8.850;2023-03-16T00:04:33;97331.59;;;-0.14;100.00
24306;BME280;12423;48.768;8.850;2023-03-16T00:06:37;97333.94;;;-0.06;100.00
24306;BME280;12423;48.768;8.850;2023-03-16T00:08:38;97332.31;;;-0.10;100.00
24306;BME280;12423;48.768;8.850;2023-03-16T00:10:39;97333.13;;;-0.08;100.00
24306;BME280;12423;48.768;8.850;2023-03-16T00:12:46;97333.97;;;-0.08;100.00
24306;BME280;12423;48.768;8.850;2023-03-16T00:14:48;97332.69;;;-0.20;100.00
24306;BME280;12423;48.768;8.850;2023-03-16T00:16:49;97328.16;;;-0.16;100.00
24306;BME280;12423;48.768;8.850;2023-03-16T00:18:50;97333.47;;;-0.17;100.00
24306;BME280;12423;48.768;8.850;2023-03-16T00:20:57;97331.81;;;-0.20;100.00
24306;BME280;12423;48.768;8.850;2023-03-16T00:22:59;97330.06;;;-0.20;100.00
24306;BME280;12423;48.768;8.850;2023-03-16T00:25:02;97327.44;;;-0.20;100.00
24306;BME280;12423;48.768;8.850;2023-03-16T00:27:04;97326.44;;;-0.17;100.00
24306;BME280;12423;48.768;8.850;2023-03-16T00:29:05;97323.88;;;-0.19;100.00
24306;BME280;12423;48.768;8.850;2023-03-16T00:31:08;97333.66;;;-0.22;100.00
24306;BME280;12423;48.768;8.850;2023-03-16T00:33:11;97328.63;;;-0.28;100.00
24306;BME280;12423;48.768;8.850;2023-03-16T00:35:12;97332.91;;;-0.26;100.00
24306;BME280;12423;48.768;8.850;2023-03-16T00:37:15;97321.50;;;-0.25;100.00
24306;BME280;12423;48.768;8.850;2023-03-16T00:39:16;97329.63;;;-0.31;100.00
24306;BME280;12423;48.768;8.850;2023-03-16T00:41:17;97329.63;;;-0.31;100.00
24306;BME280;12423;48.768;8.850;2023-03-16T00:43:20;97332.00;;;-0.25;100.00
24306;BME280;12423;48.768;8.850;2023-03-16T00:45:21;97326.06;;;-0.30;100.00
24306;BME280;12423;48.768;8.850;2023-03-16T00:47:27;97325.50;;;-0.38;100.00
24306;BME280;12423;48.768;8.850;2023-03-16T00:49:29;97332.06;;;-0.26;100.00
24306;BME280;12423;48.768;8.850;2023-03-16T00:51:30;97326.31;;;-0.36;100.00
24306;BME280;12423;48.768;8.850;2023-03-16T00:53:34;97324.19;;;-0.26;100.00
24306;BME280;12423;48.768;8.850;2023-03-16T00:55:36;97315.91;;;-0.39;100.00
24306;BME280;12423;48.768;8.850;2023-03-16T00:57:38;97317.03;;;-0.46;100.00
24306;BME280;12423;48.768;8.850;2023-03-16T00:59:39;97314.63;;;-0.51;100.00
24306;BME280;12423;48.768;8.850;2023-03-16T01:01:40;97314.78;;;-0.56;100.00
24306;BME280;12423;48.768;8.850;2023-03-16T01:03:41;97308.75;;;-0.58;100.00
24306;BME280;12423;48.768;8.850;2023-03-16T01:05:42;97312.09;;;-0.54;100.00
24306;BME280;12423;48.768;8.850;2023-03-16T01:07:43;97305.91;;;-0.53;100.00
24306;BME280;12423;48.768;8.850;2023-03-16T01:09:44;97305.88;;;-0.51;100.00
24306;BME280;12423;48.768;8.850;2023-03-16T01:11:46;97303.53;;;-0.59;100.00
24306;BME280;12423;48.768;8.850;2023-03-16T01:13:51;97305.97;;;-0.54;100.00
24306;BME280;12423;48.768;8.850;2023-03-16T01:15:54;97304.28;;;-0.56;100.00
24306;BME280;12423;48.768;8.850;2023-03-16T01:17:55;97302.78;;;-0.63;100.00
24306;BME280;12423;48.768;8.850;2023-03-16T01:19:56;97299.88;;;-0.55;100.00
24306;BME280;12423;48.768;8.850;2023-03-16T01:21:57;97302.66;;;-0.60;100.00
24306;BME280;12423;48.768;8.850;2023-03-16T01:23:58;97307.19;;;-0.63;100.00
24306;BME280;12423;48.768;8.850;2023-03-16T01:25:59;97297.66;;;-0.66;100.00
24306;BME280;12423;48.768;8.850;2023-03-16T01:28:02;97306.56;;;-0.70;100.00
24306;BME280;12423;48.768;8.850;2023-03-16T01:30:04;97311.69;;;-0.67;100.00
24306;BME280;12423;48.768;8.850;2023-03-16T01:32:06;97304.88;;;-0.71;100.00
24306;BME280;12423;48.768;8.850;2023-03-16T01:34:07;97292.84;;;-0.78;100.00
24306;BME280;12423;48.768;8.850;2023-03-16T01:36:11;97298.75;;;-0.71;100.00
24306;BME280;12423;48.768;8.850;2023-03-16T01:38:33;97301.88;;;-0.85;100.00
24306;BME280;12423;48.768;8.850;2023-03-16T01:40:34;97301.56;;;-0.78;100.00
24306;BME280;12423;48.768;8.850;2023-03-16T01:43:03;97304.56;;;-0.87;100.00
24306;BME280;12423;48.768;8.850;2023-03-16T01:47:46;97292.28;;;-0.86;100.00
24306;BME280;12423;48.768;8.850;2023-03-16T01:49:52;97299.19;;;-0.84;100.00
24306;BME280;12423;48.768;8.850;2023-03-16T01:52:09;97296.41;;;-0.79;100.00
24306;BME280;12423;48.768;8.850;2023-03-16T01:54:33;97292.63;;;-0.96;100.00
24306;BME280;12423;48.768;8.850;2023-03-16T01:56:41;97288.94;;;-0.90;100.00
24306;BME280;12423;48.768;8.850;2023-03-16T01:58:44;97289.09;;;-0.95;100.00
24306;BME280;12423;48.768;8.850;2023-03-16T02:00:46;97293.53;;;-0.97;100.00
24306;BME280;12423;48.768;8.850;2023-03-16T02:02:55;97295.88;;;-0.89;100.00
24306;BME280;12423;48.768;8.850;2023-03-16T02:05:20;97287.25;;;-0.93;100.00
24306;BME280;12423;48.768;8.850;2023-03-16T02:07:26;97288.28;;;-0.97;100.00
24306;BME280;12423;48.768;8.850;2023-03-16T02:09:28;97272.97;;;-1.09;100.00
24306;BME280;12423;48.768;8.850;2023-03-16T02:11:30;97279.38;;;-0.93;100.00
24306;BME280;12423;48.768;8.850;2023-03-16T02:13:40;97275.38;;;-1.03;100.00
24306;BME280;12423;48.768;8.850;2023-03-16T02:15:43;97272.19;;;-1.11;100.00
24306;BME280;12423;48.768;8.850;2023-03-16T02:17:45;97266.78;;;-1.06;100.00
24306;BME280;12423;48.768;8.850;2023-03-16T02:20:12;97271.28;;;-1.10;100.00
24306;BME280;12423;48.768;8.850;2023-03-16T02:22:16;97277.31;;;-1.08;100.00
24306;BME280;12423;48.768;8.850;2023-03-16T02:24:17;97278.88;;;-1.02;100.00
24306;BME280;12423;48.768;8.850;2023-03-16T02:28:37;97282.47;;;-1.05;100.00
24306;BME280;12423;48.768;8.850;2023-03-16T02:30:46;97281.63;;;-1.05;100.00
24306;BME280;12423;48.768;8.850;2023-03-16T02:32:48;97286.28;;;-1.14;100.00
24306;BME280;12423;48.768;8.850;2023-03-16T02:34:51;97281.66;;;-1.07;100.00
24306;BME280;12423;48.768;8.850;2023-03-16T02:36:53;97278.22;;;-1.09;100.00
24306;BME280;12423;48.768;8.850;2023-03-16T02:38:58;97273.16;;;-1.14;100.00
24306;BME280;12423;48.768;8.850;2023-03-16T02:41:10;97280.78;;;-1.07;100.00
24306;BME280;12423;48.768;8.850;2023-03-16T02:43:14;97272.13;;;-1.09;100.00
24306;BME280;12423;48.768;8.850;2023-03-16T02:45:25;97265.06;;;-1.07;100.00
24306;BME280;12423;48.768;8.850;2023-03-16T02:47:40;97271.06;;;-1.04;100.00
24306;BME280;12423;48.768;8.850;2023-03-16T02:49:43;97259.13;;;-1.13;100.00
24306;BME280;12423;48.768;8.850;2023-03-16T02:51:45;97252.94;;;-1.10;100.00
24306;BME280;12423;48.768;8.850;2023-03-16T02:53:47;97250.84;;;-1.25;100.00
24306;BME280;12423;48.768;8.850;2023-03-16T02:55:48;97244.66;;;-1.23;100.00
24306;BME280;12423;48.768;8.850;2023-03-16T02:57:49;97242.34;;;-1.07;100.00
24306;BME280;12423;48.768;8.850;2023-03-16T02:59:52;97248.00;;;-1.19;100.00
24306;BME280;12423;48.768;8.850;2023-03-16T03:01:52;97247.00;;;-1.40;100.00
24306;BME280;12423;48.768;8.850;2023-03-16T03:03:53;97253.66;;;-1.30;100.00
24306;BME280;12423;48.768;8.850;2023-03-16T03:05:54;97246.31;;;-1.20;100.00
24306;BME280;12423;48.768;8.850;2023-03-16T03:07:56;97240.34;;;-1.25;100.00
24306;BME280;12423;48.768;8.850;2023-03-16T03:09:57;97241.75;;;-1.15;100.00
24306;BME280;12423;48.768;8.850;2023-03-16T03:11:58;97241.75;;;-1.15;100.00
24306;BME280;12423;48.768;8.850;2023-03-16T03:14:00;97246.94;;;-1.14;100.00
24306;BME280;12423;48.768;8.850;2023-03-16T03:16:02;97248.81;;;-1.17;100.00
24306;BME280;12423;48.768;8.850;2023-03-16T03:18:03;97247.91;;;-1.16;100.00
24306;BME280;12423;48.768;8.850;2023-03-16T03:20:05;97247.22;;;-1.21;100.00
24306;BME280;12423;48.768;8.850;2023-03-16T03:22:13;97250.72;;;-1.22;100.00
24306;BME280;12423;48.768;8.850;2023-03-16T03:24:18;97242.53;;;-1.37;100.00
24306;BME280;12423;48.768;8.850;2023-03-16T03:26:20;97247.91;;;-1.16;100.00
24306;BME280;12423;48.768;8.850;2023-03-16T03:28:22;97236.84;;;-1.24;100.00
24306;BME280;12423;48.768;8.850;2023-03-16T03:30:24;97231.06;;;-1.34;100.00
24306;BME280;12423;48.768;8.850;2023-03-16T03:32:26;97231.94;;;-1.34;100.00
24306;BME280;12423;48.768;8.850;2023-03-16T03:34:28;97240.16;;;-1.19;100.00
24306;BME280;12423;48.768;8.850;2023-03-16T03:36:29;97234.31;;;-1.27;100.00
24306;BME280;12423;48.768;8.850;2023-03-16T03:38:30;97235.78;;;-1.44;100.00
24306;BME280;12423;48.768;8.850;2023-03-16T03:40:31;97231.16;;;-1.37;100.00
24306;BME280;12423;48.768;8.850;2023-03-16T03:42:36;97225.59;;;-1.28;100.00
24306;BME280;12423;48.768;8.850;2023-03-16T03:44:39;97233.63;;;-1.33;100.00
24306;BME280;12423;48.768;8.850;2023-03-16T03:46:40;97223.03;;;-1.30;100.00
24306;BME280;12423;48.768;8.850;2023-03-16T03:48:41;97224.00;;;-1.32;100.00
24306;BME280;12423;48.768;8.850;2023-03-16T03:50:42;97225.44;;;-1.23;100.00
24306;BME280;12423;48.768;8.850;2023-03-16T03:53:03;97215.84;;;-1.48;100.00
24306;BME280;12423;48.768;8.850;2023-03-16T03:55:08;97224.06;;;-1.34;100.00
24306;BME280;12423;48.768;8.850;2023-03-16T03:57:09;97218.25;;;-1.42;100.00
24306;BME280;12423;48.768;8.850;2023-03-16T03:59:11;97212.66;;;-1.33;100.00
24306;BME280;12423;48.768;8.850;2023-03-16T04:01:30;97220.31;;;-1.26;100.00
24306;BME280;12423;48.768;8.850;2023-03-16T04:03:32;97218.66;;;-1.29;100.00
24306;BME280;12423;48.768;8.850;2023-03-16T04:05:33;97218.06;;;-1.37;100.00
24306;BME280;12423;48.768;8.850;2023-03-16T04:07:34;97214.69;;;-1.41;100.00
24306;BME280;12423;48.768;8.850;2023-03-16T04:09:39;97226.81;;;-1.37;100.00
24306;BME280;12423;48.768;8.850;2023-03-16T04:11:43;97219.34;;;-1.49;100.00
24306;BME280;12423;48.768;8.850;2023-03-16T04:13:44;97215.16;;;-1.53;100.00
24306;BME280;12423;48.768;8.850;2023-03-16T04:15:45;97215.16;;;-1.53;100.00
24306;BME280;12423;48.768;8.850;2023-03-16T04:17:52;97208.63;;;-1.41;100.00
24306;BME280;12423;48.768;8.850;2023-03-16T04:19:53;97211.66;;;-1.54;100.00
24306;BME280;12423;48.768;8.850;2023-03-16T04:21:54;97211.50;;;-1.49;100.00
24306;BME280;12423;48.768;8.850;2023-03-16T04:23:55;97212.19;;;-1.44;100.00
24306;BME280;12423;48.768;8.850;2023-03-16T04:26:04;97211.19;;;-1.40;100.00
24306;BME280;12423;48.768;8.850;2023-03-16T04:28:06;97209.03;;;-1.54;100.00
24306;BME280;12423;48.768;8.850;2023-03-16T04:30:14;97217.31;;;-1.41;100.00
24306;BME280;12423;48.768;8.850;2023-03-16T04:32:20;97219.94;;;-1.41;100.00
24306;BME280;12423;48.768;8.850;2023-03-16T04:34:22;97208.03;;;-1.50;100.00
24306;BME280;12423;48.768;8.850;2023-03-16T04:36:25;97212.28;;;-1.47;100.00
24306;BME280;12423;48.768;8.850;2023-03-16T04:38:28;97215.72;;;-1.45;100.00
24306;BME280;12423;48.768;8.850;2023-03-16T04:40:33;97207.03;;;-1.47;100.00
24306;BME280;12423;48.768;8.850;2023-03-16T04:42:44;97199.31;;;-1.50;100.00
24306;BME280;12423;48.768;8.850;2023-03-16T04:44:49;97208.03;;;-1.50;100.00
24306;BME280;12423;48.768;8.850;2023-03-16T04:46:50;97211.69;;;-1.55;100.00
24306;BME280;12423;48.768;8.850;2023-03-16T04:48:52;97204.75;;;-1.56;100.00
24306;BME280;12423;48.768;8.850;2023-03-16T04:50:54;97198.66;;;-1.57;100.00
24306;BME280;12423;48.768;8.850;2023-03-16T04:52:55;97208.78;;;-1.46;100.00
24306;BME280;12423;48.768;8.850;2023-03-16T04:54:56;97200.63;;;-1.63;100.00
24306;BME280;12423;48.768;8.850;2023-03-16T04:56:58;97193.59;;;-1.61;100.00
24306;BME280;12423;48.768;8.850;2023-03-16T04:59:06;97195.47;;;-1.65;100.00
24306;BME280;12423;48.768;8.850;2023-03-16T05:01:17;97195.53;;;-1.67;100.00
24306;BME280;12423;48.768;8.850;2023-03-16T05:03:19;97196.31;;;-1.64;100.00
24306;BME280;12423;48.768;8.850;2023-03-16T05:05:20;97194.94;;;-1.75;100.00
24306;BME280;12423;48.768;8.850;2023-03-16T05:07:21;97196.22;;;-1.61;100.00
24306;BME280;12423;48.768;8.850;2023-03-16T05:09:26;97205.75;;;-1.60;100.00
24306;BME280;12423;48.768;8.850;2023-03-16T05:11:27;97190.88;;;-1.58;100.00
24306;BME280;12423;48.768;8.850;2023-03-16T05:13:33;97187.78;;;-1.70;100.00
24306;BME280;12423;48.768;8.850;2023-03-16T05:15:34;97195.63;;;-1.70;100.00
24306;BME280;12423;48.768;8.850;2023-03-16T05:17:51;97201.66;;;-1.68;100.00
24306;BME280;12423;48.768;8.850;2023-03-16T05:19:52;97200.56;;;-1.62;100.00
24306;BME280;12423;48.768;8.850;2023-03-16T05:21:54;97199.94;;;-1.69;100.00
24306;BME280;12423;48.768;8.850;2023-03-16T05:23:57;97200.72;;;-1.65;100.00
24306;BME280;12423;48.768;8.850;2023-03-16T05:25:58;97198.25;;;-1.70;100.00
24306;BME280;12423;48.768;8.850;2023-03-16T05:28:05;97195.72;;;-1.73;100.00
24306;BME280;12423;48.768;8.850;2023-03-16T05:30:27;97205.28;;;-1.72;100.00
24306;BME280;12423;48.768;8.850;2023-03-16T05:32:31;97193.84;;;-1.69;100.00
24306;BME280;12423;48.768;8.850;2023-03-16T05:34:32;97190.59;;;-1.76;100.00
24306;BME280;12423;48.768;8.850;2023-03-16T05:36:33;97192.97;;;-1.68;100.00
24306;BME280;12423;48.768;8.850;2023-03-16T05:38:40;97196.47;;;-1.69;100.00
24306;BME280;12423;48.768;8.850;2023-03-16T05:40:44;97192.97;;;-1.68;100.00
24306;BME280;12423;48.768;8.850;2023-03-16T05:42:57;97191.28;;;-1.71;100.00
24306;BME280;12423;48.768;8.850;2023-03-16T05:45:00;97195.63;;;-1.70;100.00
24306;BME280;12423;48.768;8.850;2023-03-16T05:47:08;97191.94;;;-1.64;100.00
24306;BME280;12423;48.768;8.850;2023-03-16T05:49:13;97185.84;;;-1.64;100.00
24306;BME280;12423;48.768;8.850;2023-03-16T05:51:14;97184.16;;;-1.67;100.00
24306;BME280;12423;48.768;8.850;2023-03-16T05:53:16;97179.84;;;-1.68;100.00
24306;BME280;12423;48.768;8.850;2023-03-16T05:55:17;97185.84;;;-1.64;100.00
24306;BME280;12423;48.768;8.850;2023-03-16T05:57:23;97184.13;;;-1.65;100.00
24306;BME280;12423;48.768;8.850;2023-03-16T05:59:26;97173.09;;;-1.75;100.00
24306;BME280;12423;48.768;8.850;2023-03-16T06:01:30;97174.81;;;-1.74;100.00
24306;BME280;12423;48.768;8.850;2023-03-16T06:03:33;97173.63;;;-1.65;100.00
24306;BME280;12423;48.768;8.850;2023-03-16T06:05:35;97170.22;;;-1.68;100.00
24306;BME280;12423;48.768;8.850;2023-03-16T06:07:37;97158.03;;;-1.69;100.00
24306;BME280;12423;48.768;8.850;2023-03-16T06:09:38;97163.75;;;-1.57;100.00
24306;BME280;12423;48.768;8.850;2023-03-16T06:11:44;97168.88;;;-1.54;100.00
24306;BME280;12423;48.768;8.850;2023-03-16T06:13:48;97176.44;;;-1.45;100.00
24306;BME280;12423;48.768;8.850;2023-03-16T06:15:50;97179.16;;;-1.48;100.00
24306;BME280;12423;48.768;8.850;2023-03-16T06:17:51;97183.72;;;-1.53;100.00
24306;BME280;12423;48.768;8.850;2023-03-16T06:19:52;97181.78;;;-1.48;100.00
24306;BME280;12423;48.768;8.850;2023-03-16T06:21:53;97187.00;;;-1.48;100.00
24306;BME280;12423;48.768;8.850;2023-03-16T06:23:54;97190.53;;;-1.49;100.00
24306;BME280;12423;48.768;8.850;2023-03-16T06:25:56;97192.84;;;-1.40;100.00
24306;BME280;12423;48.768;8.850;2023-03-16T06:28:00;97198.97;;;-1.41;100.00
24306;BME280;12423;48.768;8.850;2023-03-16T06:30:01;97194.56;;;-1.40;100.00
24306;BME280;12423;48.768;8.850;2023-03-16T06:32:03;97188.97;;;-1.30;100.00
24306;BME280;12423;48.768;8.850;2023-03-16T06:34:05;97196.03;;;-1.32;100.00
24306;BME280;12423;48.768;8.850;2023-03-16T06:36:06;97192.22;;;-1.23;100.00
24306;BME280;12423;48.768;8.850;2023-03-16T06:38:16;97195.63;;;-1.21;100.00
24306;BME280;12423;48.768;8.850;2023-03-16T06:40:38;97188.75;;;-1.23;100.00
24306;BME280;12423;48.768;8.850;2023-03-16T06:42:40;97194.91;;;-1.24;100.00
24306;BME280;12423;48.768;8.850;2023-03-16T06:44:44;97186.66;;;-1.14;100.00
24306;BME280;12423;48.768;8.850;2023-03-16T06:46:46;97184.53;;;-1.04;100.00
24306;BME280;12423;48.768;8.850;2023-03-16T06:48:47;97195.13;;;-1.07;100.00
24306;BME280;12423;48.768;8.850;2023-03-16T06:50:49;97190.47;;;-0.99;100.00
24306;BME280;12423;48.768;8.850;2023-03-16T06:52:55;97192.09;;;-0.96;100.00
24306;BME280;12423;48.768;8.850;2023-03-16T06:54:56;97193.94;;;-0.98;100.00
24306;BME280;12423;48.768;8.850;2023-03-16T06:56:58;97186.69;;;-0.91;100.00
24306;BME280;12423;48.768;8.850;2023-03-16T06:58:59;97194.91;;;-0.77;100.00
24306;BME280;12423;48.768;8.850;2023-03-16T07:01:04;97196.59;;;-0.76;100.00
24306;BME280;12423;48.768;8.850;2023-03-16T07:03:05;97195.00;;;-0.80;100.00
24306;BME280;12423;48.768;8.850;2023-03-16T07:05:08;97198.19;;;-0.72;100.00
24306;BME280;12423;48.768;8.850;2023-03-16T07:07:12;97189.03;;;-0.62;100.00
24306;BME280;12423;48.768;8.850;2023-03-16T07:09:13;97192.34;;;-0.57;100.00
24306;BME280;12423;48.768;8.850;2023-03-16T07:11:15;97192.00;;;-0.47;100.00
24306;BME280;12423;48.768;8.850;2023-03-16T07:13:17;97189.44;;;-0.49;100.00
24306;BME280;12423;48.768;8.850;2023-03-16T07:15:18;97191.00;;;-0.45;100.00
24306;BME280;12423;48.768;8.850;2023-03-16T07:17:20;97195.22;;;-0.41;100.00
24306;BME280;12423;48.768;8.850;2023-03-16T07:19:21;97202.66;;;-0.30;100.00
24306;BME280;12423;48.768;8.850;2023-03-16T07:21:23;97191.63;;;-0.16;100.00
24306;BME280;12423;48.768;8.850;2023-03-16T07:23:25;97193.63;;;-0.23;100.00
24306;BME280;12423;48.768;8.850;2023-03-16T07:25:29;97195.28;;;-0.20;100.00
24306;BME280;12423;48.768;8.850;2023-03-16T07:27:31;97203.56;;;-0.09;100.00
24306;BME280;12423;48.768;8.850;2023-03-16T07:29:34;97195.44;;;-0.03;100.00
24306;BME280;12423;48.768;8.850;2023-03-16T07:31:37;97200.41;;;0.05;100.00
24306;BME280;12423;48.768;8.850;2023-03-16T07:33:43;97203.41;;;0.16;100.00
24306;BME280;12423;48.768;8.850;2023-03-16T07:35:49;97202.78;;;0.32;100.00
24306;BME280;12423;48.768;8.850;2023-03-16T07:37:51;97203.84;;;0.48;100.00
24306;BME280;12423;48.768;8.850;2023-03-16T07:39:53;97201.22;;;0.48;100.00
24306;BME280;12423;48.768;8.850;2023-03-16T07:41:54;97192.78;;;0.61;100.00
24306;BME280;12423;48.768;8.850;2023-03-16T07:44:11;97204.47;;;0.74;100.00
24306;BME280;12423;48.768;8.850;2023-03-16T07:46:13;97201.69;;;0.77;100.00
24306;BME280;12423;48.768;8.850;2023-03-16T07:48:14;97201.03;;;0.93;100.00
24306;BME280;12423;48.768;8.850;2023-03-16T07:50:22;97197.56;;;1.11;100.00
24306;BME280;12423;48.768;8.850;2023-03-16T07:52:24;97205.00;;;1.20;100.00
24306;BME280;12423;48.768;8.850;2023-03-16T07:54:26;97204.88;;;1.23;100.00
24306;BME280;12423;48.768;8.850;2023-03-16T07:56:27;97197.13;;;1.20;100.00
24306;BME280;12423;48.768;8.850;2023-03-16T07:58:32;97201.97;;;1.29;100.00
24306;BME280;12423;48.768;8.850;2023-03-16T08:00:33;97203.75;;;1.48;100.00
24306;BME280;12423;48.768;8.850;2023-03-16T08:02:34;97204.38;;;1.53;100.00
24306;BME280;12423;48.768;8.850;2023-03-16T08:04:35;97207.22;;;1.68;100.00
24306;BME280;12423;48.768;8.850;2023-03-16T08:06:37;97203.66;;;1.69;100.00
24306;BME280;12423;48.768;8.850;2023-03-16T08:08:38;97206.31;;;1.86;100.00
24306;BME280;12423;48.768;8.850;2023-03-16T08:10:40;97204.66;;;2.02;100.00
24306;BME280;12423;48.768;8.850;2023-03-16T08:12:48;97202.50;;;2.11;100.00
24306;BME280;12423;48.768;8.850;2023-03-16T08:14:49;97200.19;;;2.22;100.00
24306;BME280;12423;48.768;8.850;2023-03-16T08:16:56;97201.69;;;2.28;100.00
24306;BME280;12423;48.768;8.850;2023-03-16T08:18:58;97201.97;;;2.39;100.00
24306;BME280;12423;48.768;8.850;2023-03-16T08:21:01;97197.00;;;2.50;100.00
24306;BME280;12423;48.768;8.850;2023-03-16T08:23:02;97187.59;;;2.62;100.00
24306;BME280;12423;48.768;8.850;2023-03-16T08:25:11;97189.63;;;2.74;100.00
24306;BME280;12423;48.768;8.850;2023-03-16T08:27:17;97182.31;;;2.80;100.00
24306;BME280;12423;48.768;8.850;2023-03-16T08:29:24;97174.53;;;2.94;100.00
24306;BME280;12423;48.768;8.850;2023-03-16T08:31:26;97181.75;;;3.06;100.00
24306;BME280;12423;48.768;8.850;2023-03-16T08:33:40;97176.94;;;3.14;100.00
24306;BME280;12423;48.768;8.850;2023-03-16T08:35:43;97169.13;;;3.29;100.00
24306;BME280;12423;48.768;8.850;2023-03-16T08:37:44;97168.53;;;3.24;100.00
24306;BME280;12423;48.768;8.850;2023-03-16T08:39:46;97166.81;;;3.23;100.00
24306;BME280;12423;48.768;8.850;2023-03-16T08:41:50;97169.28;;;3.26;100.00
24306;BME280;12423;48.768;8.850;2023-03-16T08:44:01;97157.19;;;3.22;100.00
24306;BME280;12423;48.768;8.850;2023-03-16T08:46:03;97162.19;;;3.26;100.00
24306;BME280;12423;48.768;8.850;2023-03-16T08:48:15;97163.16;;;3.41;100.00
24306;BME280;12423;48.768;8.850;2023-03-16T08:50:19;97156.59;;;3.48;100.00
24306;BME280;12423;48.768;8.850;2023-03-16T08:52:20;97159.91;;;3.52;100.00
24306;BME280;12423;48.768;8.850;2023-03-16T08:54:22;97158.78;;;3.56;100.00
24306;BME280;12423;48.768;8.850;2023-03-16T08:56:23;97166.91;;;3.69;100.00
24306;BME280;12423;48.768;8.850;2023-03-16T08:58:24;97163.81;;;3.77;100.00
24306;BME280;12423;48.768;8.850;2023-03-16T09:00:25;97168.78;;;3.83;100.00
24306;BME280;12423;48.768;8.850;2023-03-16T09:02:28;97157.16;;;3.85;100.00
24306;BME280;12423;48.768;8.850;2023-03-16T09:04:29;97155.09;;;3.91;100.00
24306;BME280;12423;48.768;8.850;2023-03-16T09:06:30;97149.28;;;4.00;100.00
24306;BME280;12423;48.768;8.850;2023-03-16T09:08:32;97146.72;;;4.14;100.00
24306;BME280;12423;48.768;8.850;2023-03-16T09:10:33;97149.53;;;4.25;100.00
24306;BME280;12423;48.768;8.850;2023-03-16T09:12:35;97145.13;;;4.26;100.00
24306;BME280;12423;48.768;8.850;2023-03-16T09:14:37;97146.47;;;4.33;100.00
24306;BME280;12423;48.768;8.850;2023-03-16T09:16:38;97157.72;;;4.37;100.00
24306;BME280;12423;48.768;8.850;2023-03-16T09:18:39;97161.97;;;4.39;100.00
24306;BME280;12423;48.768;8.850;2023-03-16T09:20:40;97161.91;;;4.55;100.00
24306;BME280;12423;48.768;8.850;2023-03-16T09:22:42;97159.53;;;4.65;100.00
24306;BME280;12423;48.768;8.850;2023-03-16T09:24:43;97156.84;;;4.81;100.00
24306;BME280;12423;48.768;8.850;2023-03-16T09:26:44;97161.47;;;4.92;100.00
24306;BME280;12423;48.768;8.850;2023-03-16T09:28:45;97150.41;;;4.99;100.00
24306;BME280;12423;48.768;8.850;2023-03-16T09:30:46;97154.94;;;5.12;100.00
24306;BME280;12423;48.768;8.850;2023-03-16T09:32:48;97145.66;;;5.19;100.00
24306;BME280;12423;48.768;8.850;2023-03-16T09:34:50;97151.44;;;5.26;100.00
24306;BME280;12423;48.768;8.850;2023-03-16T09:36:51;97135.03;;;5.48;100.00
24306;BME280;12423;48.768;8.850;2023-03-16T09:38:53;97129.13;;;5.57;100.00
24306;BME280;12423;48.768;8.850;2023-03-16T09:43:14;97127.38;;;5.70;100.00
24306;BME280;12423;48.768;8.850;2023-03-16T09:45:35;97127.53;;;5.82;100.00
24306;BME280;12423;48.768;8.850;2023-03-16T09:47:39;97130.53;;;5.90;100.00
24306;BME280;12423;48.768;8.850;2023-03-16T09:49:45;97127.13;;;6.02;100.00
24306;BME280;12423;48.768;8.850;2023-03-16T09:52:04;97126.91;;;6.05;100.00
24306;BME280;12423;48.768;8.850;2023-03-16T09:54:31;97128.09;;;6.14;100.00
24306;BME280;12423;48.768;8.850;2023-03-16T09:56:38;97119.16;;;6.15;100.00
24306;BME280;12423;48.768;8.850;2023-03-16T09:58:40;97119.19;;;6.28;100.00
24306;BME280;12423;48.768;8.850;2023-03-16T10:03:02;97118.38;;;6.40;100.00
24306;BME280;12423;48.768;8.850;2023-03-16T10:05:16;97111.91;;;6.57;100.00
24306;BME280;12423;48.768;8.850;2023-03-16T10:07:41;97110.44;;;6.66;100.00
24306;BME280;12423;48.768;8.850;2023-03-16T10:09:53;97120.75;;;6.83;100.00
24306;BME280;12423;48.768;8.850;2023-03-16T10:11:57;97118.59;;;7.01;100.00
24306;BME280;12423;48.768;8.850;2023-03-16T10:14:22;97115.84;;;7.03;100.00
24306;BME280;12423;48.768;8.850;2023-03-16T10:16:36;97114.25;;;7.00;100.00
24306;BME280;12423;48.768;8.850;2023-03-16T10:18:42;97115.19;;;6.99;100.00
24306;BME280;12423;48.768;8.850;2023-03-16T10:20:43;97114.75;;;7.18;100.00
24306;BME280;12423;48.768;8.850;2023-03-16T10:22:48;97108.31;;;7.34;100.00
24306;BME280;12423;48.768;8.850;2023-03-16T10:27:33;97102.66;;;7.51;99.12
24306;BME280;12423;48.768;8.850;2023-03-16T10:29:35;97089.72;;;7.71;96.86
24306;BME280;12423;48.768;8.850;2023-03-16T10:31:37;97081.81;;;7.93;98.86
24306;BME280;12423;48.768;8.850;2023-03-16T10:33:41;97081.34;;;8.00;99.77
24306;BME280;12423;48.768;8.850;2023-03-16T10:35:46;97078.78;;;8.22;100.00
24306;BME280;12423;48.768;8.850;2023-03-16T10:37:48;97078.78;;;8.46;94.62
24306;BME280;12423;48.768;8.850;2023-03-16T10:39:49;97079.66;;;8.34;83.60
24306;BME280;12423;48.768;8.850;2023-03-16T10:41:55;97068.13;;;8.69;86.17
24306;BME280;12423;48.768;8.850;2023-03-16T10:46:09;97062.03;;;9.35;86.57
24306;BME280;12423;48.768;8.850;2023-03-16T10:48:14;97067.00;;;9.39;85.07
24306;BME280;12423;48.768;8.850;2023-03-16T10:50:22;97055.63;;;9.81;83.30
24306;BME280;12423;48.768;8.850;2023-03-16T10:52:39;97068.88;;;10.04;80.44
24306;BME280;12423;48.768;8.850;2023-03-16T10:54:49;97064.75;;;10.00;77.13
24306;BME280;12423;48.768;8.850;2023-03-16T10:56:50;97061.19;;;10.43;79.00
24306;BME280;12423;48.768;8.850;2023-03-16T10:58:51;97066.53;;;10.95;75.58
24306;BME280;12423;48.768;8.850;2023-03-16T11:00:52;97069.25;;;11.45;74.09
24306;BME280;12423;48.768;8.850;2023-03-16T11:02:56;97055.19;;;11.62;74.22
24306;BME280;12423;48.768;8.850;2023-03-16T11:07:18;97054.78;;;12.45;66.24